sensor_id;sensor_type;location;lat;lon;timestamp;P1;durP1;ratioP1;P2;durP2;ratioP2
31112;SDS011;17763;48.730;9.136;2023-03-24T00:02:06;2.53;;;2.33;;
31112;SDS011;17763;48.730;9.136;2023-03-24T00:04:34;3.40;;;2.55;;
31112;SDS011;17763;48.730;9.136;2023-03-24T00:07:00;2.60;;;2.35;;
31112;SDS011;17763;48.730;9.136;2023-03-24T00:09:29;3.22;;;2.67;;
31112;SDS011;17763;48.730;9.136;2023-03-24T00:11:57;2.80;;;2.60;;
31112;SDS011;17763;48.730;9.136;2023-03-24T00:14:26;3.65;;;2.75;;
31112;SDS011;17763;48.730;9.136;2023-03-24T00:16:54;3.03;;;2.75;;
31112;SDS011;17763;48.730;9.136;2023-03-24T00:19:22;3.58;;;2.72;;
31112;SDS011;17763;48.730;9.136;2023-03-24T00:21:48;3.67;;;3.00;;
31112;SDS011;17763;48.730;9.136;2023-03-24T00:24:14;3.20;;;2.80;;
31112;SDS011;17763;48.730;9.136;2023-03-24T00:26:39;3.97;;;2.72;;
31112;SDS011;17763;48.730;9.136;2023-03-24T00:29:08;2.92;;;2.63;;
31112;SDS011;17763;48.730;9.136;2023-03-24T00:31:37;2.90;;;2.55;;
31112;SDS011;17763;48.730;9.136;2023-03-24T00:34:06;3.00;;;2.80;;
31112;SDS011;17763;48.730;9.136;2023-03-24T00:36:33;3.05;;;2.70;;
31112;SDS011;17763;48.730;9.136;2023-03-24T00:38:59;5.05;;;2.70;;
31112;SDS011;17763;48.730;9.136;2023-03-24T00:41:25;3.05;;;2.75;;
31112;SDS011;17763;48.730;9.136;2023-03-24T00:43:56;3.72;;;3.08;;
31112;SDS011;17763;48.730;9.136;2023-03-24T00:46:25;3.38;;;2.83;;
31112;SDS011;17763;48.730;9.136;2023-03-24T00:48:54;4.43;;;3.03;;
31112;SDS011;17763;48.730;9.136;2023-03-24T00:51:30;3.28;;;2.60;;
31112;SDS011;17763;48.730;9.136;2023-03-24T00:53:58;3.20;;;2.83;;
31112;SDS011;17763;48.730;9.136;2023-03-24T00:56:26;3.05;;;2.85;;
31112;SDS011;17763;48.730;9.136;2023-03-24T00:58:57;2.58;;;2.38;;
31112;SDS011;17763;48.730;9.136;2023-03-24T01:01:26;2.83;;;2.63;;
31112;SDS011;17763;48.730;9.136;2023-03-24T01:03:57;4.40;;;3.05;;
31112;SDS011;17763;48.730;9.136;2023-03-24T01:06:24;3.38;;;2.88;;
31112;SDS011;17763;48.730;9.136;2023-03-24T01:08:50;2.50;;;2.30;;
31112;SDS011;17763;48.730;9.136;2023-03-24T01:11:18;3.63;;;2.40;;
31112;SDS011;17763;48.730;9.136;2023-03-24T01:13:46;3.28;;;2.97;;
31112;SDS011;17763;48.730;9.136;2023-03-24T01:16:12;6.53;;;2.78;;
31112;SDS011;17763;48.730;9.136;2023-03-24T01:18:38;4.60;;;2.42;;
31112;SDS011;17763;48.730;9.136;2023-03-24T01:21:07;3.70;;;2.75;;
31112;SDS011;17763;48.730;9.136;2023-03-24T01:23:37;4.97;;;2.67;;
31112;SDS011;17763;48.730;9.136;2023-03-24T01:26:04;3.22;;;3.03;;
31112;SDS011;17763;48.730;9.136;2023-03-24T01:28:35;2.97;;;2.38;;
31112;SDS011;17763;48.730;9.136;2023-03-24T01:31:05;8.13;;;2.90;;
31112;SDS011;17763;48.730;9.136;2023-03-24T01:33:34;2.58;;;2.38;;
31112;SDS011;17763;48.730;9.136;2023-03-24T01:36:03;2.95;;;2.53;;
31112;SDS011;17763;48.730;9.136;2023-03-24T01:38:30;3.38;;;2.83;;
31112;SDS011;17763;48.730;9.136;2023-03-24T01:40:56;2.65;;;2.20;;
31112;SDS011;17763;48.730;9.136;2023-03-24T01:43:25;3.55;;;2.45;;
31112;SDS011;17763;48.730;9.136;2023-03-24T01:46:04;2.47;;;2.28;;
31112;SDS011;17763;48.730;9.136;2023-03-24T01:48:52;2.60;;;2.35;;
31112;SDS011;17763;48.730;9.136;2023-03-24T01:54:19;4.28;;;2.78;;
31112;SDS011;17763;48.730;9.136;2023-03-24T01:57:11;4.50;;;2.90;;
31112;SDS011;17763;48.730;9.136;2023-03-24T01:59:59;5.35;;;2.63;;
31112;SDS011;17763;48.730;9.136;2023-03-24T02:02:31;2.60;;;2.40;;
31112;SDS011;17763;48.730;9.136;2023-03-24T02:05:00;4.82;;;2.50;;
31112;SDS011;17763;48.730;9.136;2023-03-24T02:10:25;3.92;;;2.53;;
31112;SDS011;17763;48.730;9.136;2023-03-24T02:12:54;4.47;;;2.58;;
31112;SDS011;17763;48.730;9.136;2023-03-24T02:15:20;2.45;;;2.28;;
31112;SDS011;17763;48.730;9.136;2023-03-24T02:23:30;1.92;;;1.83;;
31112;SDS011;17763;48.730;9.136;2023-03-24T02:46:10;2.55;;;2.35;;
31112;SDS011;17763;48.730;9.136;2023-03-24T03:02:04;5.63;;;2.30;;
31112;SDS011;17763;48.730;9.136;2023-03-24T03:04:36;2.90;;;2.50;;
31112;SDS011;17763;48.730;9.136;2023-03-24T03:07:10;2.10;;;1.98;;
31112;SDS011;17763;48.730;9.136;2023-03-24T03:09:42;2.47;;;2.30;;
31112;SDS011;17763;48.730;9.136;2023-03-24T03:12:13;2.97;;;2.08;;
31112;SDS011;17763;48.730;9.136;2023-03-24T03:14:46;3.28;;;2.22;;
31112;SDS011;17763;48.730;9.136;2023-03-24T03:17:19;2.20;;;2.10;;
31112;SDS011;17763;48.730;9.136;2023-03-24T03:19:57;2.42;;;2.30;;
31112;SDS011;17763;48.730;9.136;2023-03-24T03:22:30;2.17;;;1.83;;
31112;SDS011;17763;48.730;9.136;2023-03-24T03:25:07;4.93;;;2.05;;
31112;SDS011;17763;48.730;9.136;2023-03-24T03:27:36;2.38;;;2.17;;
31112;SDS011;17763;48.730;9.136;2023-03-24T03:30:11;2.47;;;2.28;;
31112;SDS011;17763;48.730;9.136;2023-03-24T03:32:51;3.60;;;2.25;;
31112;SDS011;17763;48.730;9.136;2023-03-24T03:35:32;2.92;;;2.22;;
31112;SDS011;17763;48.730;9.136;2023-03-24T03:40:51;2.40;;;2.15;;
31112;SDS011;17763;48.730;9.136;2023-03-24T03:43:20;2.05;;;1.95;;
31112;SDS011;17763;48.730;9.136;2023-03-24T03:45:47;2.63;;;2.42;;
31112;SDS011;17763;48.730;9.136;2023-03-24T03:48:15;2.25;;;2.10;;
31112;SDS011;17763;48.730;9.136;2023-03-24T03:50:41;4.68;;;2.30;;
31112;SDS011;17763;48.730;9.136;2023-03-24T03:53:07;1.70;;;1.60;;
31112;SDS011;17763;48.730;9.136;2023-03-24T03:55:37;3.20;;;2.30;;
31112;SDS011;17763;48.730;9.136;2023-03-24T03:58:03;2.60;;;2.40;;
31112;SDS011;17763;48.730;9.136;2023-03-24T04:00:30;2.20;;;2.08;;
31112;SDS011;17763;48.730;9.136;2023-03-24T04:19:10;2.00;;;1.90;;
31112;SDS011;17763;48.730;9.136;2023-03-24T04:30:35;2.28;;;2.13;;
31112;SDS011;17763;48.730;9.136;2023-03-24T04:33:19;2.58;;;2.38;;
31112;SDS011;17763;48.730;9.136;2023-03-24T04:36:04;2.15;;;2.05;;
31112;SDS011;17763;48.730;9.136;2023-03-24T04:38:52;3.50;;;2.17;;
31112;SDS011;17763;48.730;9.136;2023-03-24T04:41:21;2.50;;;2.10;;
31112;SDS011;17763;48.730;9.136;2023-03-24T04:43:50;4.93;;;2.08;;
31112;SDS011;17763;48.730;9.136;2023-03-24T04:46:19;4.30;;;2.72;;
31112;SDS011;17763;48.730;9.136;2023-03-24T04:48:45;2.42;;;2.22;;
31112;SDS011;17763;48.730;9.136;2023-03-24T04:51:15;4.13;;;2.35;;
31112;SDS011;17763;48.730;9.136;2023-03-24T04:53:42;3.25;;;2.30;;
31112;SDS011;17763;48.730;9.136;2023-03-24T04:58:53;2.13;;;1.92;;
31112;SDS011;17763;48.730;9.136;2023-03-24T05:01:18;3.00;;;2.13;;
31112;SDS011;17763;48.730;9.136;2023-03-24T05:03:47;2.45;;;2.25;;
31112;SDS011;17763;48.730;9.136;2023-03-24T05:06:13;2.38;;;1.90;;
31112;SDS011;17763;48.730;9.136;2023-03-24T05:08:39;2.30;;;2.10;;
31112;SDS011;17763;48.730;9.136;2023-03-24T05:11:05;2.17;;;1.98;;
31112;SDS011;17763;48.730;9.136;2023-03-24T05:13:31;1.73;;;1.63;;
31112;SDS011;17763;48.730;9.136;2023-03-24T05:15:56;2.10;;;1.65;;
31112;SDS011;17763;48.730;9.136;2023-03-24T05:18:22;3.60;;;2.10;;
31112;SDS011;17763;48.730;9.136;2023-03-24T05:20:48;1.90;;;1.80;;
31112;SDS011;17763;48.730;9.136;2023-03-24T05:23:14;2.53;;;2.08;;
31112;SDS011;17763;48.730;9.136;2023-03-24T05:25:40;3.53;;;2.00;;
31112;SDS011;17763;48.730;9.136;2023-03-24T05:28:06;2.28;;;2.08;;
31112;SDS011;17763;48.730;9.136;2023-03-24T05:30:32;2.53;;;1.85;;
31112;SDS011;17763;48.730;9.136;2023-03-24T05:32:58;2.58;;;2.00;;
31112;SDS011;17763;48.730;9.136;2023-03-24T05:35:23;3.67;;;2.38;;
31112;SDS011;17763;48.730;9.136;2023-03-24T05:37:51;2.50;;;2.30;;
31112;SDS011;17763;48.730;9.136;2023-03-24T05:40:17;3.70;;;2.50;;
31112;SDS011;17763;48.730;9.136;2023-03-24T05:42:43;2.63;;;2.53;;
31112;SDS011;17763;48.730;9.136;2023-03-24T05:45:09;3.90;;;2.50;;
31112;SDS011;17763;48.730;9.136;2023-03-24T05:47:35;3.90;;;2.40;;
31112;SDS011;17763;48.730;9.136;2023-03-24T05:50:02;2.35;;;2.25;;
31112;SDS011;17763;48.730;9.136;2023-03-24T05:52:27;2.78;;;2.58;;
31112;SDS011;17763;48.730;9.136;2023-03-24T05:54:53;3.70;;;2.92;;
31112;SDS011;17763;48.730;9.136;2023-03-24T05:57:19;6.53;;;3.42;;
31112;SDS011;17763;48.730;9.136;2023-03-24T05:59:45;3.15;;;2.85;;
31112;SDS011;17763;48.730;9.136;2023-03-24T06:02:11;3.30;;;3.00;;
31112;SDS011;17763;48.730;9.136;2023-03-24T06:04:36;2.80;;;2.60;;
31112;SDS011;17763;48.730;9.136;2023-03-24T06:07:02;3.15;;;2.83;;
31112;SDS011;17763;48.730;9.136;2023-03-24T06:09:29;2.85;;;2.38;;
31112;SDS011;17763;48.730;9.136;2023-03-24T06:12:00;3.70;;;3.17;;
31112;SDS011;17763;48.730;9.136;2023-03-24T06:14:26;4.22;;;2.92;;
31112;SDS011;17763;48.730;9.136;2023-03-24T06:16:52;4.55;;;2.80;;
31112;SDS011;17763;48.730;9.136;2023-03-24T06:19:17;3.40;;;3.10;;
31112;SDS011;17763;48.730;9.136;2023-03-24T06:21:46;3.35;;;3.05;;
31112;SDS011;17763;48.730;9.136;2023-03-24T06:24:14;4.78;;;3.25;;
31112;SDS011;17763;48.730;9.136;2023-03-24T06:26:41;3.35;;;3.05;;
31112;SDS011;17763;48.730;9.136;2023-03-24T06:29:08;4.88;;;3.50;;
31112;SDS011;17763;48.730;9.136;2023-03-24T06:31:35;3.28;;;2.88;;
31112;SDS011;17763;48.730;9.136;2023-03-24T06:34:01;3.03;;;2.80;;
31112;SDS011;17763;48.730;9.136;2023-03-24T06:36:30;3.42;;;3.10;;
31112;SDS011;17763;48.730;9.136;2023-03-24T06:39:01;3.72;;;3.20;;
31112;SDS011;17763;48.730;9.136;2023-03-24T06:41:27;4.10;;;3.70;;
31112;SDS011;17763;48.730;9.136;2023-03-24T06:43:53;4.72;;;3.13;;
31112;SDS011;17763;48.730;9.136;2023-03-24T06:46:19;3.95;;;3.20;;
31112;SDS011;17763;48.730;9.136;2023-03-24T06:48:44;3.63;;;3.15;;
31112;SDS011;17763;48.730;9.136;2023-03-24T06:51:10;3.83;;;3.42;;
31112;SDS011;17763;48.730;9.136;2023-03-24T06:53:36;4.70;;;3.63;;
31112;SDS011;17763;48.730;9.136;2023-03-24T06:56:05;3.85;;;3.00;;
31112;SDS011;17763;48.730;9.136;2023-03-24T06:58:31;3.97;;;3.55;;
31112;SDS011;17763;48.730;9.136;2023-03-24T07:00:58;3.40;;;3.10;;
31112;SDS011;17763;48.730;9.136;2023-03-24T07:03:25;3.30;;;2.90;;
31112;SDS011;17763;48.730;9.136;2023-03-24T07:05:50;3.78;;;3.28;;
31112;SDS011;17763;48.730;9.136;2023-03-24T07:08:16;3.50;;;3.20;;
31112;SDS011;17763;48.730;9.136;2023-03-24T07:10:43;3.50;;;3.20;;
31112;SDS011;17763;48.730;9.136;2023-03-24T07:13:09;6.68;;;3.60;;
31112;SDS011;17763;48.730;9.136;2023-03-24T07:15:35;4.82;;;3.72;;
31112;SDS011;17763;48.730;9.136;2023-03-24T07:18:01;5.40;;;4.00;;
31112;SDS011;17763;48.730;9.136;2023-03-24T07:20:27;4.03;;;3.72;;
31112;SDS011;17763;48.730;9.136;2023-03-24T07:22:56;4.30;;;3.53;;
31112;SDS011;17763;48.730;9.136;2023-03-24T07:25:22;3.95;;;3.65;;
31112;SDS011;17763;48.730;9.136;2023-03-24T07:27:50;4.55;;;3.53;;
31112;SDS011;17763;48.730;9.136;2023-03-24T07:30:18;4.22;;;3.83;;
31112;SDS011;17763;48.730;9.136;2023-03-24T07:32:44;4.15;;;3.80;;
31112;SDS011;17763;48.730;9.136;2023-03-24T07:35:13;3.78;;;3.47;;
31112;SDS011;17763;48.730;9.136;2023-03-24T07:37:43;6.05;;;3.78;;
31112;SDS011;17763;48.730;9.136;2023-03-24T07:40:09;4.25;;;3.70;;
31112;SDS011;17763;48.730;9.136;2023-03-24T07:42:40;5.13;;;3.88;;
31112;SDS011;17763;48.730;9.136;2023-03-24T07:45:07;5.28;;;3.75;;
31112;SDS011;17763;48.730;9.136;2023-03-24T07:47:37;5.85;;;3.92;;
31112;SDS011;17763;48.730;9.136;2023-03-24T07:50:03;5.07;;;4.28;;
31112;SDS011;17763;48.730;9.136;2023-03-24T07:52:37;6.07;;;4.78;;
31112;SDS011;17763;48.730;9.136;2023-03-24T07:55:05;6.63;;;4.20;;
31112;SDS011;17763;48.730;9.136;2023-03-24T07:57:32;4.78;;;4.35;;
31112;SDS011;17763;48.730;9.136;2023-03-24T08:00:04;5.18;;;4.13;;
31112;SDS011;17763;48.730;9.136;2023-03-24T08:02:38;3.92;;;3.63;;
31112;SDS011;17763;48.730;9.136;2023-03-24T08:05:09;5.50;;;4.70;;
31112;SDS011;17763;48.730;9.136;2023-03-24T08:07:42;6.63;;;4.28;;
31112;SDS011;17763;48.730;9.136;2023-03-24T08:10:11;4.50;;;4.10;;
31112;SDS011;17763;48.730;9.136;2023-03-24T08:12:39;9.90;;;4.80;;
31112;SDS011;17763;48.730;9.136;2023-03-24T08:15:06;4.53;;;4.13;;
31112;SDS011;17763;48.730;9.136;2023-03-24T08:17:33;4.68;;;4.18;;
31112;SDS011;17763;48.730;9.136;2023-03-24T08:19:59;4.57;;;3.80;;
31112;SDS011;17763;48.730;9.136;2023-03-24T08:22:26;5.80;;;4.22;;
31112;SDS011;17763;48.730;9.136;2023-03-24T08:24:51;6.32;;;4.22;;
31112;SDS011;17763;48.730;9.136;2023-03-24T08:27:17;5.28;;;3.85;;
31112;SDS011;17763;48.730;9.136;2023-03-24T08:29:42;5.50;;;4.03;;
31112;SDS011;17763;48.730;9.136;2023-03-24T08:32:10;4.10;;;3.80;;
31112;SDS011;17763;48.730;9.136;2023-03-24T08:34:36;5.22;;;4.82;;
31112;SDS011;17763;48.730;9.136;2023-03-24T08:37:02;4.45;;;4.10;;
31112;SDS011;17763;48.730;9.136;2023-03-24T08:39:27;4.80;;;4.40;;
31112;SDS011;17763;48.730;9.136;2023-03-24T08:41:56;6.85;;;4.35;;
31112;SDS011;17763;48.730;9.136;2023-03-24T08:44:22;5.20;;;4.13;;
31112;SDS011;17763;48.730;9.136;2023-03-24T08:46:48;3.72;;;3.42;;
31112;SDS011;17763;48.730;9.136;2023-03-24T08:49:13;4.57;;;3.83;;
31112;SDS011;17763;48.730;9.136;2023-03-24T08:51:39;3.80;;;3.50;;
31112;SDS011;17763;48.730;9.136;2023-03-24T08:54:05;3.85;;;3.55;;
31112;SDS011;17763;48.730;9.136;2023-03-24T08:56:31;4.80;;;3.22;;
31112;SDS011;17763;48.730;9.136;2023-03-24T08:58:57;3.65;;;3.35;;
31112;SDS011;17763;48.730;9.136;2023-03-24T09:01:23;3.30;;;2.88;;
31112;SDS011;17763;48.730;9.136;2023-03-24T09:03:49;4.47;;;3.50;;
31112;SDS011;17763;48.730;9.136;2023-03-24T09:06:15;3.80;;;3.47;;
31112;SDS011;17763;48.730;9.136;2023-03-24T09:08:40;3.22;;;2.92;;
31112;SDS011;17763;48.730;9.136;2023-03-24T09:11:06;4.70;;;3.13;;
31112;SDS011;17763;48.730;9.136;2023-03-24T09:13:37;3.80;;;3.45;;
31112;SDS011;17763;48.730;9.136;2023-03-24T09:16:02;4.13;;;3.05;;
31112;SDS011;17763;48.730;9.136;2023-03-24T09:18:28;2.97;;;2.78;;
31112;SDS011;17763;48.730;9.136;2023-03-24T09:20:54;3.25;;;2.95;;
31112;SDS011;17763;48.730;9.136;2023-03-24T09:23:20;4.13;;;3.33;;
31112;SDS011;17763;48.730;9.136;2023-03-24T09:25:52;3.10;;;2.80;;
31112;SDS011;17763;48.730;9.136;2023-03-24T09:28:18;4.90;;;3.22;;
31112;SDS011;17763;48.730;9.136;2023-03-24T09:30:44;2.70;;;2.50;;
31112;SDS011;17763;48.730;9.136;2023-03-24T09:33:10;2.55;;;2.35;;
31112;SDS011;17763;48.730;9.136;2023-03-24T09:35:36;3.85;;;2.63;;
31112;SDS011;17763;48.730;9.136;2023-03-24T09:38:02;3.00;;;2.80;;
31112;SDS011;17763;48.730;9.136;2023-03-24T09:40:29;2.92;;;2.72;;
31112;SDS011;17763;48.730;9.136;2023-03-24T09:43:04;3.42;;;2.97;;
31112;SDS011;17763;48.730;9.136;2023-03-24T09:45:35;4.75;;;2.45;;
31112;SDS011;17763;48.730;9.136;2023-03-24T09:48:14;3.03;;;2.70;;
31112;SDS011;17763;48.730;9.136;2023-03-24T09:51:05;3.00;;;2.80;;
31112;SDS011;17763;48.730;9.136;2023-03-24T09:56:16;3.03;;;2.73;;
31112;SDS011;17763;48.730;9.136;2023-03-24T09:58:44;3.35;;;3.15;;
31112;SDS011;17763;48.730;9.136;2023-03-24T10:01:14;3.00;;;2.70;;
31112;SDS011;17763;48.730;9.136;2023-03-24T10:03:41;3.17;;;2.85;;
31112;SDS011;17763;48.730;9.136;2023-03-24T10:06:14;4.18;;;2.90;;
31112;SDS011;17763;48.730;9.136;2023-03-24T10:09:02;3.97;;;2.88;;
31112;SDS011;17763;48.730;9.136;2023-03-24T10:14:38;3.03;;;2.83;;
31112;SDS011;17763;48.730;9.136;2023-03-24T10:25:41;2.80;;;1.88;;
31112;SDS011;17763;48.730;9.136;2023-03-24T10:30:48;1.88;;;1.77;;
31112;SDS011;17763;48.730;9.136;2023-03-24T10:33:16;3.30;;;1.83;;
31112;SDS011;17763;48.730;9.136;2023-03-24T10:38:30;2.65;;;1.60;;
31112;SDS011;17763;48.730;9.136;2023-03-24T10:40:56;2.08;;;1.60;;
31112;SDS011;17763;48.730;9.136;2023-03-24T10:43:23;1.38;;;1.27;;
31112;SDS011;17763;48.730;9.136;2023-03-24T10:45:51;1.45;;;1.30;;
31112;SDS011;17763;48.730;9.136;2023-03-24T10:51:19;1.70;;;1.17;;
31112;SDS011;17763;48.730;9.136;2023-03-24T10:53:50;2.35;;;1.50;;
31112;SDS011;17763;48.730;9.136;2023-03-24T10:56:41;5.43;;;1.67;;
31112;SDS011;17763;48.730;9.136;2023-03-24T11:01:49;3.13;;;1.48;;
31112;SDS011;17763;48.730;9.136;2023-03-24T11:04:27;3.05;;;2.75;;
31112;SDS011;17763;48.730;9.136;2023-03-24T11:07:05;1.30;;;1.25;;
31112;SDS011;17763;48.730;9.136;2023-03-24T11:09:55;2.10;;;1.25;;
31112;SDS011;17763;48.730;9.136;2023-03-24T11:12:35;2.30;;;1.30;;
31112;SDS011;17763;48.730;9.136;2023-03-24T11:17:44;1.85;;;1.33;;
31112;SDS011;17763;48.730;9.136;2023-03-24T11:20:30;1.30;;;1.20;;
31112;SDS011;17763;48.730;9.136;2023-03-24T11:23:19;2.35;;;1.30;;
31112;SDS011;17763;48.730;9.136;2023-03-24T11:25:53;3.67;;;1.40;;
31112;SDS011;17763;48.730;9.136;2023-03-24T11:39:26;1.10;;;1.00;;
31112;SDS011;17763;48.730;9.136;2023-03-24T11:49:40;2.90;;;0.95;;
31112;SDS011;17763;48.730;9.136;2023-03-24T11:52:21;1.58;;;0.82;;
31112;SDS011;17763;48.730;9.136;2023-03-24T11:54:48;0.55;;;0.55;;
31112;SDS011;17763;48.730;9.136;2023-03-24T11:57:15;0.70;;;0.70;;
31112;SDS011;17763;48.730;9.136;2023-03-24T12:00:04;0.98;;;0.98;;
31112;SDS011;17763;48.730;9.136;2023-03-24T12:05:41;2.42;;;0.63;;
31112;SDS011;17763;48.730;9.136;2023-03-24T12:08:22;0.52;;;0.52;;
31112;SDS011;17763;48.730;9.136;2023-03-24T12:11:06;4.10;;;0.70;;
31112;SDS011;17763;48.730;9.136;2023-03-24T12:13:39;2.67;;;0.80;;
31112;SDS011;17763;48.730;9.136;2023-03-24T12:24:11;3.10;;;0.65;;
31112;SDS011;17763;48.730;9.136;2023-03-24T12:26:41;1.80;;;0.70;;
31112;SDS011;17763;48.730;9.136;2023-03-24T12:37:16;0.70;;;0.50;;
31112;SDS011;17763;48.730;9.136;2023-03-24T12:39:52;0.57;;;0.52;;
31112;SDS011;17763;48.730;9.136;2023-03-24T12:42:39;0.73;;;0.50;;
31112;SDS011;17763;48.730;9.136;2023-03-24T13:00:43;1.08;;;0.40;;
31112;SDS011;17763;48.730;9.136;2023-03-24T13:03:35;0.57;;;0.57;;
31112;SDS011;17763;48.730;9.136;2023-03-24T13:06:15;0.50;;;0.50;;
31112;SDS011;17763;48.730;9.136;2023-03-24T13:12:03;0.50;;;0.50;;
31112;SDS011;17763;48.730;9.136;2023-03-24T13:17:41;1.00;;;0.93;;
31112;SDS011;17763;48.730;9.136;2023-03-24T13:20:43;1.25;;;0.60;;
31112;SDS011;17763;48.730;9.136;2023-03-24T13:34:25;2.10;;;0.90;;
31112;SDS011;17763;48.730;9.136;2023-03-24T13:37:02;1.38;;;0.80;;
31112;SDS011;17763;48.730;9.136;2023-03-24T13:39:32;1.58;;;0.52;;
31112;SDS011;17763;48.730;9.136;2023-03-24T13:42:00;1.98;;;0.90;;
31112;SDS011;17763;48.730;9.136;2023-03-24T13:44:29;0.90;;;0.73;;
31112;SDS011;17763;48.730;9.136;2023-03-24T13:47:17;11.00;;;3.13;;
31112;SDS011;17763;48.730;9.136;2023-03-24T13:49:58;3.60;;;1.20;;
31112;SDS011;17763;48.730;9.136;2023-03-24T13:52:36;0.60;;;0.60;;
31112;SDS011;17763;48.730;9.136;2023-03-24T13:55:14;1.85;;;0.90;;
31112;SDS011;17763;48.730;9.136;2023-03-24T13:57:54;1.30;;;1.20;;
31112;SDS011;17763;48.730;9.136;2023-03-24T14:00:24;1.25;;;1.15;;
31112;SDS011;17763;48.730;9.136;2023-03-24T14:05:57;2.08;;;1.00;;
31112;SDS011;17763;48.730;9.136;2023-03-24T14:12:06;1.70;;;1.30;;
31112;SDS011;17763;48.730;9.136;2023-03-24T14:19:30;1.98;;;0.60;;
31112;SDS011;17763;48.730;9.136;2023-03-24T14:24:54;2.15;;;0.70;;
31112;SDS011;17763;48.730;9.136;2023-03-24T14:29:59;1.30;;;0.65;;
31112;SDS011;17763;48.730;9.136;2023-03-24T14:32:45;1.15;;;0.80;;
31112;SDS011;17763;48.730;9.136;2023-03-24T14:38:03;1.05;;;0.73;;
31112;SDS011;17763;48.730;9.136;2023-03-24T14:40:45;2.72;;;0.80;;
31112;SDS011;17763;48.730;9.136;2023-03-24T14:45:53;0.68;;;0.68;;
31112;SDS011;17763;48.730;9.136;2023-03-24T14:48:42;0.47;;;0.47;;
31112;SDS011;17763;48.730;9.136;2023-03-24T14:54:00;0.63;;;0.50;;
31112;SDS011;17763;48.730;9.136;2023-03-24T14:56:30;2.80;;;0.60;;
31112;SDS011;17763;48.730;9.136;2023-03-24T14:59:02;3.50;;;0.75;;
31112;SDS011;17763;48.730;9.136;2023-03-24T15:01:34;0.50;;;0.50;;
31112;SDS011;17763;48.730;9.136;2023-03-24T15:04:01;0.60;;;0.60;;
31112;SDS011;17763;48.730;9.136;2023-03-24T15:06:31;0.70;;;0.70;;
31112;SDS011;17763;48.730;9.136;2023-03-24T15:09:07;1.23;;;0.70;;
31112;SDS011;17763;48.730;9.136;2023-03-24T15:11:35;0.50;;;0.50;;
31112;SDS011;17763;48.730;9.136;2023-03-24T15:14:04;1.25;;;0.65;;
31112;SDS011;17763;48.730;9.136;2023-03-24T15:16:35;0.80;;;0.50;;
31112;SDS011;17763;48.730;9.136;2023-03-24T15:19:35;1.38;;;0.75;;
31112;SDS011;17763;48.730;9.136;2023-03-24T15:29:35;1.77;;;0.70;;
31112;SDS011;17763;48.730;9.136;2023-03-24T15:36:59;1.35;;;1.00;;
31112;SDS011;17763;48.730;9.136;2023-03-24T15:39:33;1.75;;;0.77;;
31112;SDS011;17763;48.730;9.136;2023-03-24T15:42:03;0.80;;;0.65;;
31112;SDS011;17763;48.730;9.136;2023-03-24T15:44:33;0.70;;;0.70;;
31112;SDS011;17763;48.730;9.136;2023-03-24T15:47:02;1.42;;;0.70;;
31112;SDS011;17763;48.730;9.136;2023-03-24T15:49:35;0.88;;;0.60;;
31112;SDS011;17763;48.730;9.136;2023-03-24T15:54:49;1.75;;;0.77;;
31112;SDS011;17763;48.730;9.136;2023-03-24T15:59:49;2.83;;;0.82;;
31112;SDS011;17763;48.730;9.136;2023-03-24T16:02:22;0.70;;;0.63;;
31112;SDS011;17763;48.730;9.136;2023-03-24T16:04:56;1.50;;;1.00;;
31112;SDS011;17763;48.730;9.136;2023-03-24T16:07:26;0.98;;;0.70;;
31112;SDS011;17763;48.730;9.136;2023-03-24T16:09:56;0.63;;;0.63;;
31112;SDS011;17763;48.730;9.136;2023-03-24T16:12:33;1.75;;;1.00;;
31112;SDS011;17763;48.730;9.136;2023-03-24T16:15:03;1.33;;;0.70;;
31112;SDS011;17763;48.730;9.136;2023-03-24T16:17:35;1.20;;;1.10;;
31112;SDS011;17763;48.730;9.136;2023-03-24T16:20:01;1.27;;;1.17;;
31112;SDS011;17763;48.730;9.136;2023-03-24T16:24:58;3.72;;;2.38;;
31112;SDS011;17763;48.730;9.136;2023-03-24T16:27:24;1.88;;;1.77;;
31112;SDS011;17763;48.730;9.136;2023-03-24T16:29:49;4.40;;;1.38;;
31112;SDS011;17763;48.730;9.136;2023-03-24T16:32:17;2.35;;;2.15;;
31112;SDS011;17763;48.730;9.136;2023-03-24T16:34:45;1.98;;;1.88;;
31112;SDS011;17763;48.730;9.136;2023-03-24T16:37:11;3.28;;;2.05;;
31112;SDS011;17763;48.730;9.136;2023-03-24T16:39:37;3.17;;;1.50;;
31112;SDS011;17763;48.730;9.136;2023-03-24T16:42:05;2.80;;;1.13;;
31112;SDS011;17763;48.730;9.136;2023-03-24T16:44:31;1.40;;;1.30;;
31112;SDS011;17763;48.730;9.136;2023-03-24T16:46:59;2.88;;;1.85;;
31112;SDS011;17763;48.730;9.136;2023-03-24T16:49:24;1.33;;;1.13;;
31112;SDS011;17763;48.730;9.136;2023-03-24T16:51:51;1.20;;;1.10;;
31112;SDS011;17763;48.730;9.136;2023-03-24T16:54:17;0.80;;;0.80;;
31112;SDS011;17763;48.730;9.136;2023-03-24T16:56:44;3.08;;;1.38;;
31112;SDS011;17763;48.730;9.136;2023-03-24T16:59:09;1.40;;;1.30;;
31112;SDS011;17763;48.730;9.136;2023-03-24T17:01:39;1.60;;;1.20;;
31112;SDS011;17763;48.730;9.136;2023-03-24T17:04:13;2.13;;;1.40;;
31112;SDS011;17763;48.730;9.136;2023-03-24T17:09:11;1.42;;;1.33;;
31112;SDS011;17763;48.730;9.136;2023-03-24T17:11:37;4.75;;;1.80;;
31112;SDS011;17763;48.730;9.136;2023-03-24T17:14:09;1.50;;;1.40;;
31112;SDS011;17763;48.730;9.136;2023-03-24T17:16:38;1.85;;;1.35;;
31112;SDS011;17763;48.730;9.136;2023-03-24T17:19:08;2.28;;;1.40;;
31112;SDS011;17763;48.730;9.136;2023-03-24T17:21:42;1.58;;;1.35;;
31112;SDS011;17763;48.730;9.136;2023-03-24T17:24:17;1.63;;;1.52;;
31112;SDS011;17763;48.730;9.136;2023-03-24T17:26:43;2.17;;;1.40;;
31112;SDS011;17763;48.730;9.136;2023-03-24T17:29:10;2.58;;;1.40;;
31112;SDS011;17763;48.730;9.136;2023-03-24T17:31:36;1.25;;;1.15;;
31112;SDS011;17763;48.730;9.136;2023-03-24T17:34:05;1.30;;;1.20;;
31112;SDS011;17763;48.730;9.136;2023-03-24T17:36:33;1.10;;;1.00;;
31112;SDS011;17763;48.730;9.136;2023-03-24T17:39:00;3.35;;;1.40;;
31112;SDS011;17763;48.730;9.136;2023-03-24T17:41:26;2.08;;;1.80;;
31112;SDS011;17763;48.730;9.136;2023-03-24T17:43:51;1.88;;;1.65;;
31112;SDS011;17763;48.730;9.136;2023-03-24T17:46:17;3.33;;;1.40;;
31112;SDS011;17763;48.730;9.136;2023-03-24T17:48:43;1.52;;;1.30;;
31112;SDS011;17763;48.730;9.136;2023-03-24T17:51:11;2.75;;;1.58;;
31112;SDS011;17763;48.730;9.136;2023-03-24T17:53:36;2.28;;;2.05;;
31112;SDS011;17763;48.730;9.136;2023-03-24T17:56:02;1.73;;;1.35;;
31112;SDS011;17763;48.730;9.136;2023-03-24T17:58:34;1.50;;;1.27;;
31112;SDS011;17763;48.730;9.136;2023-03-24T18:01:01;1.50;;;1.40;;
31112;SDS011;17763;48.730;9.136;2023-03-24T18:03:30;2.30;;;1.42;;
31112;SDS011;17763;48.730;9.136;2023-03-24T18:06:03;2.15;;;1.42;;
31112;SDS011;17763;48.730;9.136;2023-03-24T18:08:30;2.20;;;1.67;;
31112;SDS011;17763;48.730;9.136;2023-03-24T18:11:06;2.47;;;1.45;;
31112;SDS011;17763;48.730;9.136;2023-03-24T18:13:34;3.40;;;1.60;;
31112;SDS011;17763;48.730;9.136;2023-03-24T18:16:01;2.42;;;1.30;;
31112;SDS011;17763;48.730;9.136;2023-03-24T18:18:30;1.67;;;1.55;;
31112;SDS011;17763;48.730;9.136;2023-03-24T18:20:57;1.42;;;1.30;;
31112;SDS011;17763;48.730;9.136;2023-03-24T18:23:23;1.50;;;1.40;;
31112;SDS011;17763;48.730;9.136;2023-03-24T18:25:58;4.75;;;1.50;;
31112;SDS011;17763;48.730;9.136;2023-03-24T18:28:25;2.00;;;1.38;;
31112;SDS011;17763;48.730;9.136;2023-03-24T18:30:53;1.95;;;1.77;;
31112;SDS011;17763;48.730;9.136;2023-03-24T18:33:20;1.50;;;1.40;;
31112;SDS011;17763;48.730;9.136;2023-03-24T18:35:53;3.30;;;1.50;;
31112;SDS011;17763;48.730;9.136;2023-03-24T18:38:19;1.50;;;1.40;;
31112;SDS011;17763;48.730;9.136;2023-03-24T18:40:57;2.25;;;1.60;;
31112;SDS011;17763;48.730;9.136;2023-03-24T18:43:30;1.77;;;1.67;;
31112;SDS011;17763;48.730;9.136;2023-03-24T18:45:58;3.00;;;1.50;;
31112;SDS011;17763;48.730;9.136;2023-03-24T18:48:24;1.35;;;1.25;;